»·PEaware :: N744PW KSEA-KPAE

N744PW :: KSEA-KPAE

FLIGHT INFORMATION

Flight Status: Arrived
Operator: Privately registered:
United States
More flights under this callsign
Pilot: Anonymous 31222 (31222)
Aircraft: CESSNA 172 SKYHAWK
(C172)
More flights by this aircraft type
Origin: KSEA Seattle-Tacoma Intl
United States
Destination: KPAE Paine Field/Snohomish Co.
United States
More flights between these airports :: More routes between these airports
Route: +SEA7 PAE
File this flight plan on PilotEdge
Remarks:
Altitude:
(Current/Filed)
5,000ft
Speed:
(Current/Filed)
100kts
Departed: 10-Nov-20 02:18 PM
Arrived: 10-Nov-20 02:51 PM
Distance/Time
Traveled:
28nm/0:33
Distance/Time
To Go:
Arrived

Flight Plot

Page will automatically refresh every two minutes.

Flight plan parsing failed; only flown route is shown


Map Options




Map Legend


Flown Route
Filed Route
Departure Airport
Arrival Airport
Navaid (VOR, NDB)
Fix

Horizontal Profiles

Position Reports

Time Latitude Longitude Heading Altitude Ground
Speed
10-Nov-20 13:38 47.439020 -122.315032 55 350ft 0kts
10-Nov-20 13:39 47.439020 -122.315032 55 350ft 0kts
10-Nov-20 13:40 47.439020 -122.315032 55 350ft 0kts
10-Nov-20 13:41 47.439020 -122.315032 55 350ft 0kts
10-Nov-20 13:45 47.439020 -122.315032 55 350ft 0kts
10-Nov-20 13:46 47.439020 -122.315032 55 350ft 0kts
10-Nov-20 13:47 47.439020 -122.315032 55 350ft 0kts
10-Nov-20 13:48 47.439020 -122.315032 55 350ft 0kts
10-Nov-20 13:54 47.439020 -122.315032 55 350ft 0kts
10-Nov-20 13:55 47.439020 -122.315032 55 350ft 0kts
10-Nov-20 13:56 47.439020 -122.315032 55 350ft 0kts
10-Nov-20 13:57 47.439020 -122.315032 55 350ft 0kts
10-Nov-20 13:58 47.439020 -122.315032 55 350ft 0kts
10-Nov-20 13:59 47.439020 -122.315032 55 350ft 0kts
10-Nov-20 14:00 47.439020 -122.315032 55 350ft 0kts
10-Nov-20 14:01 47.439020 -122.315032 55 350ft 0kts
10-Nov-20 14:02 47.439020 -122.315032 55 350ft 0kts
10-Nov-20 14:03 47.439020 -122.315032 55 350ft 0kts
10-Nov-20 14:04 47.439020 -122.315032 55 350ft 0kts
10-Nov-20 14:05 47.439020 -122.315032 55 350ft 0kts
10-Nov-20 14:06 47.439020 -122.315032 55 350ft 0kts
10-Nov-20 14:07 47.439020 -122.315032 55 350ft 0kts
10-Nov-20 14:08 47.439020 -122.315032 55 350ft 0kts
10-Nov-20 14:09 47.439020 -122.315032 55 350ft 0kts
10-Nov-20 14:10 47.439020 -122.315032 55 350ft 0kts
10-Nov-20 14:11 47.439020 -122.315032 55 350ft 0kts
10-Nov-20 14:12 47.439029 -122.315014 54 350ft 0kts
10-Nov-20 14:13 47.439900 -122.314830 331 354ft 5kts
10-Nov-20 14:14 47.440663 -122.316543 271 349ft 0kts
10-Nov-20 14:15 47.440663 -122.316543 271 349ft 0kts
10-Nov-20 14:16 47.440928 -122.317934 328 345ft 5kts
10-Nov-20 14:17 47.453295 -122.318007 4 767ft 73kts
10-Nov-20 14:18 47.475397 -122.312100 2 1505ft 86kts
10-Nov-20 14:19 47.499436 -122.309408 357 2198ft 87kts
10-Nov-20 14:20 47.523484 -122.308492 354 2885ft 86kts
10-Nov-20 14:21 47.547015 -122.307673 354 3566ft 82kts
10-Nov-20 14:22 47.570524 -122.307161 354 4014ft 100kts
10-Nov-20 14:23 47.600941 -122.306549 356 4001ft 108kts
10-Nov-20 14:24 47.629797 -122.306199 355 4004ft 101kts
10-Nov-20 14:25 47.657990 -122.306198 354 4004ft 101kts
10-Nov-20 14:26 47.686150 -122.306396 354 4005ft 101kts
10-Nov-20 14:27 47.713950 -122.306707 354 4005ft 99kts
10-Nov-20 14:28 47.741168 -122.305347 359 4005ft 97kts
10-Nov-20 14:29 47.767836 -122.302844 359 4006ft 95kts
10-Nov-20 14:30 47.793927 -122.302668 351 4007ft 93kts
10-Nov-20 14:31 47.819577 -122.308806 350 4007ft 93kts
10-Nov-20 14:32 47.845168 -122.316030 350 4008ft 94kts
10-Nov-20 14:33 47.870882 -122.323713 350 4008ft 94kts
10-Nov-20 14:34 47.896597 -122.331463 350 4008ft 94kts
10-Nov-20 14:35 47.922366 -122.339299 350 4008ft 94kts
10-Nov-20 14:36 47.947995 -122.347160 350 4008ft 94kts
10-Nov-20 14:37 47.973787 -122.355135 350 4008ft 94kts
10-Nov-20 14:38 47.999519 -122.363158 349 4007ft 94kts
10-Nov-20 14:39 48.025138 -122.371027 349 4010ft 94kts
10-Nov-20 14:40 48.050829 -122.378566 349 4013ft 94kts
10-Nov-20 14:42 48.076562 -122.384317 16 4009ft 94kts
10-Nov-20 14:43 48.078990 -122.345500 99 3436ft 109kts
10-Nov-20 14:44 48.072363 -122.301360 108 2529ft 108kts
10-Nov-20 14:45 48.047020 -122.289052 180 2006ft 87kts
10-Nov-20 14:46 48.023913 -122.288410 179 2016ft 88kts
10-Nov-20 14:47 47.998354 -122.288061 175 1956ft 98kts
10-Nov-20 14:48 47.971987 -122.287633 176 1519ft 78kts
10-Nov-20 14:49 47.951800 -122.286946 177 1147ft 68kts
10-Nov-20 14:50 47.933623 -122.286434 175 814ft 61kts
10-Nov-20 14:51 47.917479 -122.285693 178 559ft 38kts
10-Nov-20 14:52 47.914739 -122.284358 133 558ft 0kts
10-Nov-20 14:53 47.914712 -122.284316 134 558ft 0kts
10-Nov-20 14:54 47.912837 -122.283453 181 563ft 14kts
10-Nov-20 14:55 47.910978 -122.282805 84 571ft 7kts
10-Nov-20 14:56 47.910851 -122.277781 180 573ft 7kts
10-Nov-20 14:57 47.910141 -122.278659 248 579ft 7kts
10-Nov-20 14:58 47.910023 -122.278426 49 580ft 0kts
10-Nov-20 14:59 47.910023 -122.278426 49 580ft 0kts

Navigation Log

Ident Type
Flight plan parsing failed, navigation log unavailable